createdAt,value
2016-05-23T14:21:52.464Z,18.84
2016-05-23T14:22:52.029Z,18.82
2016-05-23T14:23:52.625Z,18.82
2016-05-23T14:24:52.441Z,18.84
2016-05-23T14:25:52.600Z,18.79
2016-05-23T14:26:52.586Z,18.89
2016-05-23T14:27:51.980Z,18.87
2016-05-23T14:28:52.170Z,18.93
2016-05-23T14:29:52.642Z,18.78
2016-05-23T14:30:51.957Z,18.96
2016-05-23T14:31:52.147Z,19.02
2016-05-23T14:32:52.352Z,18.97
2016-05-23T14:33:51.981Z,19.05
2016-05-23T14:34:52.139Z,19.06
2016-05-23T14:35:52.533Z,19.02
2016-05-23T14:36:52.176Z,19.07
2016-05-23T14:37:52.319Z,19.09
2016-05-23T14:38:52.322Z,19.15
2016-05-23T14:39:52.310Z,19.17
2016-05-23T14:40:52.109Z,19.15
2016-05-23T14:41:51.940Z,19.13
2016-05-23T14:42:52.301Z,19.24
2016-05-23T14:43:52.492Z,19.19
2016-05-23T14:44:52.370Z,19.24
2016-05-23T14:45:52.076Z,19.28
2016-05-23T14:46:52.281Z,19.25
2016-05-23T14:47:52.065Z,19.37
2016-05-23T14:48:52.067Z,19.45
2016-05-23T14:49:51.868Z,19.42
2016-05-23T14:50:51.948Z,19.4
2016-05-23T14:51:52.451Z,19.52
2016-05-23T14:52:52.251Z,19.43
2016-05-23T14:53:52.300Z,19.55
2016-05-23T14:54:52.303Z,19.57
2016-05-23T14:55:52.305Z,19.57
2016-05-23T14:56:52.245Z,19.52
2016-05-23T14:57:52.045Z,19.57
2016-05-23T14:58:52.470Z,19.7
2016-05-23T14:59:53.222Z,19.63
2016-05-23T15:00:52.241Z,19.64
2016-05-23T15:01:51.836Z,19.61
2016-05-23T15:02:51.825Z,19.61
2016-05-23T15:03:51.827Z,19.75
2016-05-23T15:04:52.017Z,19.78
2016-05-23T15:05:52.223Z,19.87
2016-05-23T15:06:52.210Z,19.86
2016-05-23T15:07:52.213Z,19.89
2016-05-23T15:08:52.215Z,19.92
2016-05-23T15:09:52.218Z,19.98
2016-05-23T15:10:52.002Z,19.9
2016-05-23T15:11:52.005Z,19.95
2016-05-23T15:12:52.054Z,20.02
2016-05-23T15:13:52.041Z,19.93
2016-05-23T15:14:52.825Z,19.98
2016-05-23T15:15:52.406Z,20.01
2016-05-23T15:16:52.206Z,19.98
2016-05-23T15:17:52.209Z,19.95
2016-05-23T15:18:51.993Z,20.08
2016-05-23T15:19:52.198Z,20.08
2016-05-23T15:20:52.388Z,20.1
2016-05-23T15:21:52.188Z,20.15
2016-05-23T15:22:52.190Z,20.19
2016-05-23T15:23:51.990Z,20.25
2016-05-23T15:24:51.977Z,20.25
2016-05-23T15:25:52.183Z,20.29
2016-05-23T15:26:52.233Z,20.32
2016-05-23T15:27:52.406Z,20.26
2016-05-23T15:28:52.410Z,20.38
2016-05-23T15:29:51.834Z,20.41
2016-05-23T15:30:52.181Z,20.44
2016-05-23T15:31:52.184Z,20.42
2016-05-23T15:32:51.764Z,20.42
2016-05-23T15:33:52.173Z,20.42
2016-05-23T15:34:51.973Z,20.56
2016-05-23T15:35:52.163Z,20.49
2016-05-23T15:36:51.805Z,20.53
2016-05-23T15:37:51.809Z,20.6
2016-05-23T15:38:52.171Z,20.71
2016-05-23T15:39:52.377Z,20.66
2016-05-23T15:40:52.161Z,20.63
2016-05-23T15:41:51.757Z,20.63
2016-05-23T15:42:51.791Z,20.75
2016-05-23T15:43:52.169Z,20.64
2016-05-23T15:44:51.984Z,20.76
2016-05-23T15:45:51.955Z,20.72
2016-05-23T15:46:51.958Z,20.71
2016-05-23T15:47:52.165Z,20.68
2016-05-23T15:48:52.213Z,20.64
2016-05-23T15:49:51.951Z,20.79
2016-05-23T15:50:52.360Z,20.79
2016-05-23T15:51:52.159Z,20.78
2016-05-23T15:52:51.956Z,20.76
2016-05-23T15:53:51.943Z,20.88
2016-05-23T15:54:51.951Z,20.9
2016-05-23T15:55:52.024Z,20.93
2016-05-23T15:56:52.020Z,20.93
2016-05-23T15:57:52.259Z,20.94
2016-05-23T15:58:52.041Z,21
2016-05-23T15:59:52.281Z,20.98
2016-05-23T16:00:52.292Z,20.88
2016-05-23T16:01:52.086Z,20.94
2016-05-23T16:02:52.080Z,20.9
2016-05-23T16:03:51.903Z,20.97
2016-05-23T16:04:52.493Z,20.94
2016-05-23T16:05:52.295Z,20.97
2016-05-23T16:06:52.113Z,20.93
2016-05-23T16:07:52.150Z,20.96
2016-05-23T16:08:52.312Z,20.93
2016-05-23T16:09:52.317Z,20.98
2016-05-23T16:10:51.961Z,20.93
2016-05-23T16:11:52.512Z,20.94
2016-05-23T16:12:52.313Z,21.04
2016-05-23T16:13:52.317Z,21.03
2016-05-23T16:14:52.383Z,21.06
2016-05-23T16:15:52.324Z,21.06
2016-05-23T16:16:52.327Z,21.09
2016-05-23T16:17:52.314Z,21.09
2016-05-23T16:18:52.114Z,21.06
2016-05-23T16:19:52.367Z,21.06
2016-05-23T16:20:52.370Z,21.15
2016-05-23T16:21:52.107Z,21.06
2016-05-23T16:22:51.906Z,21.11
2016-05-23T16:23:52.519Z,21.16
2016-05-23T16:24:52.521Z,21.12
2016-05-23T16:25:52.305Z,21.16
2016-05-23T16:26:52.105Z,21.15
2016-05-23T16:27:52.311Z,21.27
2016-05-23T16:28:53.204Z,21.15
2016-05-23T16:29:52.786Z,21.22
2016-05-23T16:30:52.366Z,21.28
2016-05-23T16:31:52.306Z,21.31
2016-05-23T16:32:51.902Z,21.27
2016-05-23T16:33:52.107Z,21.3
2016-05-23T16:34:52.110Z,21.33
2016-05-23T16:35:52.098Z,21.4
2016-05-23T16:36:52.132Z,21.37
2016-05-23T16:37:52.306Z,21.45
2016-05-23T16:38:52.512Z,21.48
2016-05-23T16:39:52.499Z,21.52
2016-05-23T16:40:52.096Z,21.49
2016-05-23T16:41:52.098Z,21.49
2016-05-23T16:42:52.117Z,21.49
2016-05-23T16:43:51.901Z,21.53
2016-05-23T16:44:52.654Z,21.51
2016-05-23T16:45:52.312Z,21.56
2016-05-23T16:46:52.095Z,21.58
2016-05-23T16:47:52.098Z,21.61
2016-05-23T16:48:52.117Z,21.62
2016-05-23T16:49:51.948Z,21.66
2016-05-23T16:50:52.295Z,21.66
2016-05-23T16:51:51.984Z,21.62
2016-05-23T16:52:52.300Z,21.59
2016-05-23T16:53:52.303Z,21.61
2016-05-23T16:54:52.305Z,21.7
2016-05-23T16:55:52.308Z,21.62
2016-05-23T16:56:52.311Z,21.59
2016-05-23T16:57:52.095Z,21.64
2016-05-23T16:58:52.300Z,21.67
2016-05-23T16:59:52.631Z,21.62
2016-05-23T17:00:52.524Z,21.61
2016-05-23T17:01:52.511Z,21.64
2016-05-23T17:02:52.311Z,21.62
2016-05-23T17:03:52.095Z,21.61
2016-05-23T17:04:52.097Z,21.66
2016-05-23T17:05:52.304Z,21.58
2016-05-23T17:06:52.509Z,21.67
2016-05-23T17:07:52.090Z,21.66
2016-05-23T17:08:52.140Z,21.61
2016-05-23T17:09:52.095Z,21.68
2016-05-23T17:10:52.099Z,21.62
2016-05-23T17:11:52.101Z,21.56
2016-05-23T17:12:52.494Z,21.61
2016-05-23T17:13:52.326Z,21.62
2016-05-23T17:14:53.046Z,21.7
2016-05-23T17:15:52.299Z,21.71
2016-05-23T17:16:52.083Z,21.7
2016-05-23T17:17:51.742Z,21.67
2016-05-23T17:18:52.089Z,21.7
2016-05-23T17:19:52.295Z,21.66
2016-05-23T17:20:52.281Z,21.71
2016-05-23T17:21:51.893Z,21.76
2016-05-23T17:22:52.302Z,21.76
2016-05-23T17:23:52.133Z,21.68
2016-05-23T17:24:52.090Z,21.74
2016-05-23T17:25:52.294Z,21.7
2016-05-23T17:26:52.298Z,21.73
2016-05-23T17:27:52.300Z,21.74
2016-05-23T17:28:53.897Z,21.74
2016-05-23T17:29:52.509Z,21.62
2016-05-23T17:30:52.292Z,21.59
2016-05-23T17:31:51.889Z,21.62
2016-05-23T17:32:52.095Z,21.62
2016-05-23T17:33:52.300Z,21.66
2016-05-23T17:34:52.288Z,21.56
2016-05-23T17:35:52.088Z,21.64
2016-05-23T17:36:52.090Z,21.71
2016-05-23T17:37:52.140Z,21.7
2016-05-23T17:38:52.299Z,21.68
2016-05-23T17:39:52.504Z,21.76
2016-05-23T17:40:52.289Z,21.74
2016-05-23T17:41:51.932Z,21.58
2016-05-23T17:42:52.074Z,21.66
2016-05-23T17:43:52.093Z,21.62
2016-05-23T17:44:52.534Z,21.59
2016-05-23T17:45:52.083Z,21.64
2016-05-23T17:46:52.085Z,21.61
2016-05-23T17:47:51.948Z,21.59
2016-05-23T17:48:52.326Z,21.7
2016-05-23T17:49:52.297Z,21.59
2016-05-23T17:50:52.300Z,21.64
2016-05-23T17:51:52.084Z,21.59
2016-05-23T17:52:52.523Z,21.66
2016-05-23T17:53:52.136Z,21.7
2016-05-23T17:54:52.294Z,21.61
2016-05-23T17:55:52.095Z,21.61
2016-05-23T17:56:51.895Z,21.71
2016-05-23T17:57:52.490Z,21.73
2016-05-23T17:58:52.290Z,21.74
2016-05-23T17:59:52.308Z,21.67
2016-05-23T18:00:52.280Z,21.74
2016-05-23T18:01:52.079Z,21.71
2016-05-23T18:02:52.285Z,21.74
2016-05-23T18:03:51.756Z,21.71
2016-05-23T18:04:52.072Z,21.67
2016-05-23T18:05:52.074Z,21.71
2016-05-23T18:06:52.077Z,21.68
2016-05-23T18:07:52.080Z,21.68
2016-05-23T18:08:52.285Z,21.71
2016-05-23T18:09:52.507Z,21.74
2016-05-23T18:10:52.087Z,21.68
2016-05-23T18:11:52.482Z,21.73
2016-05-23T18:12:51.874Z,21.74
2016-05-23T18:13:52.330Z,21.71
2016-05-23T18:14:52.349Z,21.71
2016-05-23T18:15:52.085Z,21.71
2016-05-23T18:16:51.915Z,21.7
2016-05-23T18:17:52.122Z,21.7
2016-05-23T18:18:53.532Z,21.67
2016-05-23T18:19:52.284Z,21.76
2016-05-23T18:20:52.287Z,21.7
2016-05-23T18:21:51.711Z,21.68
2016-05-23T18:22:52.120Z,21.71
2016-05-23T18:23:52.279Z,21.7
2016-05-23T18:24:52.078Z,21.7
2016-05-23T18:25:52.269Z,21.7
2016-05-23T18:26:52.490Z,21.71
2016-05-23T18:27:52.275Z,21.73
2016-05-23T18:28:52.277Z,21.7
2016-05-23T18:29:52.811Z,21.68
2016-05-23T18:30:52.486Z,21.66
2016-05-23T18:31:52.472Z,21.71
2016-05-23T18:32:52.272Z,21.71
2016-05-23T18:33:52.477Z,21.71
2016-05-23T18:34:52.480Z,21.68
2016-05-23T18:35:52.280Z,21.76
2016-05-23T18:36:52.064Z,21.66
2016-05-23T18:37:52.129Z,21.68
2016-05-23T18:38:53.382Z,21.7
2016-05-23T18:39:52.072Z,21.73
2016-05-23T18:40:52.262Z,21.71
2016-05-23T18:41:51.858Z,21.7
2016-05-23T18:42:51.924Z,21.68
2016-05-23T18:43:52.113Z,21.66
2016-05-23T18:44:51.976Z,21.55
2016-05-23T18:45:52.119Z,21.66
2016-05-23T18:46:51.918Z,21.66
2016-05-23T18:47:52.079Z,21.66
2016-05-23T18:48:53.534Z,21.66
2016-05-23T18:49:52.068Z,21.64
2016-05-23T18:50:52.273Z,21.56
2016-05-23T18:51:52.057Z,21.58
2016-05-23T18:52:51.997Z,21.59
2016-05-23T18:53:54.937Z,21.53
2016-05-23T18:54:52.268Z,21.61
2016-05-23T18:55:52.068Z,21.51
2016-05-23T18:56:51.899Z,21.52
2016-05-23T18:57:51.917Z,21.56
2016-05-23T18:58:52.108Z,21.53
2016-05-23T18:59:52.672Z,21.56
2016-05-23T19:00:52.050Z,21.49
2016-05-23T19:01:51.959Z,21.49
2016-05-23T19:02:52.056Z,21.53
2016-05-23T19:03:52.058Z,21.52
2016-05-23T19:04:52.264Z,21.52
2016-05-23T19:05:51.907Z,21.43
2016-05-23T19:06:52.317Z,21.52
2016-05-23T19:07:52.257Z,21.51
2016-05-23T19:08:54.760Z,21.4
2016-05-23T19:09:52.465Z,21.38
2016-05-23T19:10:52.265Z,21.41
2016-05-23T19:11:52.251Z,21.43
2016-05-23T19:12:51.895Z,21.46
2016-05-23T19:13:53.602Z,21.43
2016-05-23T19:14:52.276Z,21.4
2016-05-23T19:15:52.278Z,21.34
2016-05-23T19:16:52.109Z,21.49
2016-05-23T19:17:51.893Z,21.3
2016-05-23T19:18:52.365Z,21.37
2016-05-23T19:19:52.148Z,21.34
2016-05-23T19:20:52.260Z,21.41
2016-05-23T19:21:52.466Z,21.41
2016-05-23T19:22:52.062Z,21.34
2016-05-23T19:23:52.456Z,21.38
2016-05-23T19:24:52.068Z,21.28
2016-05-23T19:25:52.055Z,21.3
2016-05-23T19:26:52.058Z,21.31
2016-05-23T19:27:52.279Z,21.33
2016-05-23T19:28:54.673Z,21.28
2016-05-23T19:29:52.659Z,21.23
2016-05-23T19:30:52.256Z,21.23
2016-05-23T19:31:52.055Z,21.28
2016-05-23T19:32:51.856Z,21.27
2016-05-23T19:33:54.327Z,21.25
2016-05-23T19:34:52.095Z,21.33
2016-05-23T19:35:52.051Z,21.22
2016-05-23T19:36:52.241Z,21.11
2016-05-23T19:37:52.446Z,21.11
2016-05-23T19:38:53.605Z,21.16
2016-05-23T19:39:51.889Z,21.15
2016-05-23T19:40:52.236Z,21.13
2016-05-23T19:41:52.239Z,21.22
2016-05-23T19:42:52.038Z,21.22
2016-05-23T19:43:52.088Z,21.16
2016-05-23T19:44:52.043Z,21.15
2016-05-23T19:45:52.030Z,21.13
2016-05-23T19:46:51.830Z,21.08
2016-05-23T19:47:51.833Z,21.09
2016-05-23T19:48:52.242Z,21.08
2016-05-23T19:49:52.229Z,21.06
2016-05-23T19:50:52.028Z,21.13
2016-05-23T19:51:52.032Z,21.09
2016-05-23T19:52:51.878Z,20.98
2016-05-23T19:53:52.084Z,21.03
2016-05-23T19:54:52.429Z,20.96
2016-05-23T19:55:52.432Z,21.03
2016-05-23T19:56:52.231Z,21.03
2016-05-23T19:57:52.016Z,21.01
2016-05-23T19:58:52.457Z,21.03
2016-05-23T19:59:52.943Z,20.97
2016-05-23T20:00:52.275Z,21.04
2016-05-23T20:01:52.027Z,20.97
2016-05-23T20:02:52.233Z,21.04
2016-05-23T20:03:53.625Z,20.94
2016-05-23T20:04:52.426Z,20.94
2016-05-23T20:05:52.069Z,20.97
2016-05-23T20:06:52.212Z,21
2016-05-23T20:07:52.011Z,20.97
2016-05-23T20:08:52.233Z,20.98
2016-05-23T20:09:52.424Z,20.98
2016-05-23T20:10:52.020Z,20.94
2016-05-23T20:11:52.007Z,20.98
2016-05-23T20:12:52.213Z,20.96
2016-05-23T20:13:54.652Z,20.93
2016-05-23T20:14:52.530Z,20.97
2016-05-23T20:15:51.861Z,20.98
2016-05-23T20:16:52.005Z,20.97
2016-05-23T20:17:52.008Z,20.93
2016-05-23T20:18:51.994Z,20.94
2016-05-23T20:19:52.201Z,20.96
2016-05-23T20:20:51.640Z,20.93
2016-05-23T20:21:52.409Z,20.96
2016-05-23T20:22:52.208Z,20.94
2016-05-23T20:23:53.852Z,20.9
2016-05-23T20:24:52.010Z,20.96
2016-05-23T20:25:52.201Z,20.9
2016-05-23T20:26:52.000Z,20.85
2016-05-23T20:27:52.191Z,20.83
2016-05-23T20:28:52.600Z,20.83
2016-05-23T20:29:52.898Z,20.81
2016-05-23T20:30:51.980Z,20.78
2016-05-23T20:31:52.404Z,20.81
2016-05-23T20:32:52.188Z,20.78
2016-05-23T20:33:54.347Z,20.78
2016-05-23T20:34:52.006Z,20.74
2016-05-23T20:35:52.400Z,20.76
2016-05-23T20:36:52.183Z,20.79
2016-05-23T20:37:52.389Z,20.75
2016-05-23T20:38:52.564Z,20.74
2016-05-23T20:39:51.988Z,20.71
2016-05-23T20:40:52.397Z,20.68
2016-05-23T20:41:52.385Z,20.71
2016-05-23T20:42:52.184Z,20.66
2016-05-23T20:43:53.374Z,20.68
2016-05-23T20:44:51.643Z,20.64
2016-05-23T20:45:51.770Z,20.66
2016-05-23T20:46:52.024Z,20.64
2016-05-23T20:47:51.759Z,20.68
2016-05-23T20:48:53.372Z,20.64
2016-05-23T20:49:52.172Z,20.61
2016-05-23T20:50:52.174Z,20.61
2016-05-23T20:51:51.957Z,20.61
2016-05-23T20:52:52.164Z,20.61
2016-05-23T20:53:53.776Z,20.6
2016-05-23T20:54:51.810Z,20.63
2016-05-23T20:55:51.969Z,20.58
2016-05-23T20:56:52.378Z,20.54
2016-05-23T20:57:52.162Z,20.53
2016-05-23T20:58:53.476Z,20.56
2016-05-23T20:59:52.386Z,20.54
2016-05-23T21:00:52.357Z,20.58
2016-05-23T21:01:51.954Z,20.49
2016-05-23T21:02:52.144Z,20.54
2016-05-23T21:03:52.162Z,20.54
2016-05-23T21:04:52.368Z,20.53
2016-05-23T21:05:52.153Z,20.53
2016-05-23T21:06:51.967Z,20.56
2016-05-23T21:07:51.736Z,20.56
2016-05-23T21:08:52.160Z,20.49
2016-05-23T21:09:51.944Z,20.44
2016-05-23T21:10:52.133Z,20.41
2016-05-23T21:11:51.934Z,20.4
2016-05-23T21:12:52.140Z,20.44
2016-05-23T21:13:52.142Z,20.46
2016-05-23T21:14:51.629Z,20.44
2016-05-23T21:15:52.351Z,20.46
2016-05-23T21:16:52.353Z,20.44
2016-05-23T21:17:52.340Z,20.46
2016-05-23T21:18:52.281Z,20.41
2016-05-23T21:19:51.971Z,20.42
2016-05-23T21:20:51.724Z,20.42
2016-05-23T21:21:52.132Z,20.42
2016-05-23T21:22:52.120Z,20.46
2016-05-23T21:23:52.326Z,20.44
2016-05-23T21:24:52.141Z,20.41
2016-05-23T21:25:51.924Z,20.41
2016-05-23T21:26:52.131Z,20.32
2016-05-23T21:27:52.117Z,20.41
2016-05-23T21:28:53.417Z,20.4
2016-05-23T21:29:51.920Z,20.35
2016-05-23T21:30:52.313Z,20.38
2016-05-23T21:31:52.112Z,20.32
2016-05-23T21:32:52.115Z,20.38
2016-05-23T21:33:52.320Z,20.35
2016-05-23T21:34:52.121Z,20.29
2016-05-23T21:35:51.951Z,20.38
2016-05-23T21:36:52.111Z,20.25
2016-05-23T21:37:52.113Z,20.25
2016-05-23T21:38:52.647Z,20.26
2016-05-23T21:39:52.102Z,20.29
2016-05-23T21:40:51.902Z,20.23
2016-05-23T21:41:51.890Z,20.26
2016-05-23T21:42:52.111Z,20.34
2016-05-23T21:43:53.020Z,20.29
2016-05-23T21:44:52.194Z,20.27
2016-05-23T21:45:51.994Z,20.27
2016-05-23T21:46:51.887Z,20.25
2016-05-23T21:47:51.891Z,20.32
2016-05-23T21:48:52.158Z,20.26
2016-05-23T21:49:52.099Z,20.2
2016-05-23T21:50:51.945Z,20.23
2016-05-23T21:51:51.885Z,20.25
2016-05-23T21:52:52.091Z,20.26
2016-05-23T21:53:51.984Z,20.23
2016-05-23T21:54:52.284Z,20.26
2016-05-23T21:55:51.677Z,20.18
2016-05-23T21:56:51.867Z,20.22
2016-05-23T21:57:51.870Z,20.25
2016-05-23T21:58:52.201Z,20.23
2016-05-23T21:59:52.079Z,20.18
2016-05-23T22:00:51.878Z,20.11
2016-05-23T22:01:51.709Z,20.19
2016-05-23T22:02:51.852Z,20.18
2016-05-23T22:03:52.401Z,20.11
2016-05-23T22:04:51.858Z,20.11
2016-05-23T22:05:52.064Z,20.15
2016-05-23T22:06:51.864Z,20.15
2016-05-23T22:07:52.256Z,20.15
2016-05-23T22:08:51.853Z,20.11
2016-05-23T22:09:52.058Z,20.07
2016-05-23T22:10:51.842Z,20.12
2016-05-23T22:11:51.844Z,20.11
2016-05-23T22:12:52.067Z,20.08
2016-05-23T22:13:52.053Z,20.11
2016-05-23T22:14:52.056Z,20.12
2016-05-23T22:15:52.043Z,20.1
2016-05-23T22:16:52.047Z,20.08
2016-05-23T22:17:51.846Z,20.16
2016-05-23T22:18:51.880Z,20.1
2016-05-23T22:19:51.632Z,20.1
2016-05-23T22:20:51.854Z,20.08
2016-05-23T22:21:52.044Z,20.07
2016-05-23T22:22:52.249Z,20.08
2016-05-23T22:23:51.877Z,20.07
2016-05-23T22:24:51.818Z,20.08
2016-05-23T22:25:51.882Z,20.11
2016-05-23T22:26:52.245Z,20.01
2016-05-23T22:27:51.670Z,20.07
2016-05-23T22:28:51.829Z,20.07
2016-05-23T22:29:51.832Z,20.07
2016-05-23T22:30:51.662Z,20.1
2016-05-23T22:31:52.024Z,19.97
2016-05-23T22:32:51.870Z,20
2016-05-23T22:33:52.217Z,20.01
2016-05-23T22:34:51.814Z,19.95
2016-05-23T22:35:51.457Z,19.95
2016-05-23T22:36:51.819Z,19.95
2016-05-23T22:37:51.805Z,19.97
2016-05-23T22:38:51.652Z,19.93
2016-05-23T22:39:51.592Z,19.98
2016-05-23T22:40:52.204Z,20.02
2016-05-23T22:41:52.004Z,19.97
2016-05-23T22:42:51.803Z,19.92
2016-05-23T22:43:51.994Z,19.89
2016-05-23T22:44:52.059Z,19.98
2016-05-23T22:45:51.983Z,20
2016-05-23T22:46:52.033Z,19.85
2016-05-23T22:47:51.786Z,19.92
2016-05-23T22:48:51.991Z,19.83
2016-05-23T22:49:51.979Z,19.93
2016-05-23T22:50:51.825Z,19.89
2016-05-23T22:51:51.984Z,19.92
2016-05-23T22:52:51.987Z,19.95
2016-05-23T22:53:51.990Z,20.01
2016-05-23T22:54:52.195Z,19.85
2016-05-23T22:55:51.776Z,19.93
2016-05-23T22:56:51.763Z,19.92
2016-05-23T22:57:52.188Z,19.82
2016-05-23T22:58:51.613Z,19.95
2016-05-23T22:59:51.959Z,19.9
2016-05-23T23:00:51.821Z,19.78
2016-05-23T23:01:51.761Z,19.89
2016-05-23T23:02:52.170Z,19.86
2016-05-23T23:03:51.953Z,19.8
2016-05-23T23:04:51.957Z,19.86
2016-05-23T23:05:52.178Z,19.8
2016-05-23T23:06:52.165Z,19.78
2016-05-23T23:07:51.761Z,19.83
2016-05-23T23:08:51.937Z,19.78
2016-05-23T23:09:51.735Z,19.82
2016-05-23T23:10:51.738Z,19.78
2016-05-23T23:11:51.944Z,19.83
2016-05-23T23:12:51.947Z,19.83
2016-05-23T23:13:51.964Z,19.78
2016-05-23T23:14:51.422Z,19.79
2016-05-23T23:15:51.736Z,19.79
2016-05-23T23:16:52.145Z,19.79
2016-05-23T23:17:51.929Z,19.75
2016-05-23T23:18:51.947Z,19.83
2016-05-23T23:19:51.919Z,19.79
2016-05-23T23:20:51.733Z,19.78
2016-05-23T23:21:51.940Z,19.8
2016-05-23T23:22:51.771Z,19.79
2016-05-23T23:23:51.977Z,19.78
2016-05-23T23:24:51.385Z,19.78
2016-05-23T23:25:52.122Z,19.74
2016-05-23T23:26:51.906Z,19.78
2016-05-23T23:27:51.909Z,19.79
2016-05-23T23:28:51.912Z,19.78
2016-05-23T23:29:51.914Z,19.67
2016-05-23T23:30:52.104Z,19.7
2016-05-23T23:31:51.904Z,19.67
2016-05-23T23:32:51.906Z,19.78
2016-05-23T23:33:51.894Z,19.68
2016-05-23T23:34:51.693Z,19.64
2016-05-23T23:35:51.540Z,19.75
2016-05-23T23:36:51.730Z,19.7
2016-05-23T23:37:51.904Z,19.68
2016-05-23T23:38:51.938Z,19.65
2016-05-23T23:39:51.909Z,19.68
2016-05-23T23:40:51.725Z,19.64
2016-05-23T23:41:51.900Z,19.63
2016-05-23T23:42:51.872Z,19.67
2016-05-23T23:43:52.077Z,19.63
2016-05-23T23:44:52.267Z,19.67
2016-05-23T23:45:52.067Z,19.71
2016-05-23T23:46:51.928Z,19.6
2016-05-23T23:47:51.666Z,19.63
2016-05-23T23:48:51.700Z,19.55
2016-05-23T23:49:51.858Z,19.67
2016-05-23T23:50:51.455Z,19.6
2016-05-23T23:51:51.505Z,19.57
2016-05-23T23:52:51.649Z,19.6
2016-05-23T23:53:51.869Z,19.56
2016-05-23T23:54:52.075Z,19.57
2016-05-23T23:55:51.860Z,19.57
2016-05-23T23:56:51.846Z,19.57
2016-05-23T23:57:51.849Z,19.6
2016-05-23T23:58:52.040Z,19.57
2016-05-23T23:59:51.635Z,19.57
